sensor_id;sensor_type;location;lat;lon;timestamp;pressure;altitude;pressure_sealevel;temperature;humidity
47897;BME280;39629;51.400;5.494;2023-04-20T00:01:18;102078.88;;;6.13;52.04
47897;BME280;39629;51.400;5.494;2023-04-20T00:06:20;102082.66;;;5.96;52.58
47897;BME280;39629;51.400;5.494;2023-04-20T00:11:21;102077.97;;;5.87;52.69
47897;BME280;39629;51.400;5.494;2023-04-20T00:16:24;102062.94;;;5.82;52.29
47897;BME280;39629;51.400;5.494;2023-04-20T00:21:26;102065.06;;;5.68;53.04
47897;BME280;39629;51.400;5.494;2023-04-20T00:26:28;102056.03;;;5.82;51.42
47897;BME280;39629;51.400;5.494;2023-04-20T00:31:33;102042.00;;;5.80;51.61
47897;BME280;39629;51.400;5.494;2023-04-20T00:36:34;102034.69;;;5.70;52.14
47897;BME280;39629;51.400;5.494;2023-04-20T00:41:36;102037.34;;;5.71;50.40
47897;BME280;39629;51.400;5.494;2023-04-20T00:46:39;102017.41;;;5.73;50.89
47897;BME280;39629;51.400;5.494;2023-04-20T00:51:41;102020.25;;;5.55;52.49
47897;BME280;39629;51.400;5.494;2023-04-20T00:56:43;102017.22;;;5.44;52.59
47897;BME280;39629;51.400;5.494;2023-04-20T01:01:46;102006.16;;;5.27;53.00
47897;BME280;39629;51.400;5.494;2023-04-20T01:06:48;101994.19;;;5.34;53.09
47897;BME280;39629;51.400;5.494;2023-04-20T01:11:50;101984.66;;;5.35;52.56
47897;BME280;39629;51.400;5.494;2023-04-20T01:16:53;101983.44;;;5.25;53.09
47897;BME280;39629;51.400;5.494;2023-04-20T01:21:54;101976.66;;;5.30;52.29
47897;BME280;39629;51.400;5.494;2023-04-20T01:26:57;101960.41;;;5.15;53.76
47897;BME280;39629;51.400;5.494;2023-04-20T01:31:59;101969.53;;;5.26;52.20
47897;BME280;39629;51.400;5.494;2023-04-20T01:37:01;101959.38;;;5.09;55.14
47897;BME280;39629;51.400;5.494;2023-04-20T01:42:08;101960.91;;;4.82;57.80
47897;BME280;39629;51.400;5.494;2023-04-20T01:47:10;101943.44;;;5.02;56.35
47897;BME280;39629;51.400;5.494;2023-04-20T01:52:14;101935.03;;;5.10;57.00
47897;BME280;39629;51.400;5.494;2023-04-20T01:57:16;101925.13;;;5.24;55.31
47897;BME280;39629;51.400;5.494;2023-04-20T02:02:18;101916.41;;;5.24;54.56
47897;BME280;39629;51.400;5.494;2023-04-20T02:07:20;101917.13;;;5.20;55.30
47897;BME280;39629;51.400;5.494;2023-04-20T02:12:22;101906.59;;;4.94;59.99
47897;BME280;39629;51.400;5.494;2023-04-20T02:17:24;101904.84;;;4.93;58.53
47897;BME280;39629;51.400;5.494;2023-04-20T02:22:26;101894.00;;;5.06;56.60
47897;BME280;39629;51.400;5.494;2023-04-20T02:27:28;101895.97;;;5.12;58.50
47897;BME280;39629;51.400;5.494;2023-04-20T02:32:30;101886.75;;;4.98;57.11
47897;BME280;39629;51.400;5.494;2023-04-20T02:37:32;101887.16;;;5.08;56.26
47897;BME280;39629;51.400;5.494;2023-04-20T02:42:35;101883.53;;;5.05;56.81
47897;BME280;39629;51.400;5.494;2023-04-20T02:47:40;101877.41;;;5.28;56.45
47897;BME280;39629;51.400;5.494;2023-04-20T02:52:43;101860.44;;;5.16;57.71
47897;BME280;39629;51.400;5.494;2023-04-20T02:57:46;101864.41;;;5.30;57.70
47897;BME280;39629;51.400;5.494;2023-04-20T03:02:49;101861.94;;;5.09;60.05
47897;BME280;39629;51.400;5.494;2023-04-20T03:07:51;101859.06;;;5.01;63.33
47897;BME280;39629;51.400;5.494;2023-04-20T03:12:55;101843.72;;;5.10;62.26
47897;BME280;39629;51.400;5.494;2023-04-20T03:18:19;101823.81;;;5.13;64.24
47897;BME280;39629;51.400;5.494;2023-04-20T03:23:21;101825.94;;;4.99;68.22
47897;BME280;39629;51.400;5.494;2023-04-20T03:28:25;101825.00;;;4.98;71.14
47897;BME280;39629;51.400;5.494;2023-04-20T03:33:27;101820.19;;;5.09;69.52
47897;BME280;39629;51.400;5.494;2023-04-20T03:38:29;101812.47;;;5.12;70.65
47897;BME280;39629;51.400;5.494;2023-04-20T03:43:33;101803.91;;;5.16;73.03
47897;BME280;39629;51.400;5.494;2023-04-20T03:48:35;101799.06;;;5.27;74.49
47897;BME280;39629;51.400;5.494;2023-04-20T03:53:37;101803.66;;;5.34;74.63
47897;BME280;39629;51.400;5.494;2023-04-20T03:58:40;101797.69;;;5.38;78.40
47897;BME280;39629;51.400;5.494;2023-04-20T04:03:48;101792.03;;;5.50;77.11
47897;BME280;39629;51.400;5.494;2023-04-20T04:08:51;101793.06;;;5.55;79.13
47897;BME280;39629;51.400;5.494;2023-04-20T04:13:54;101794.50;;;5.73;78.32
47897;BME280;39629;51.400;5.494;2023-04-20T04:18:56;101788.53;;;5.77;79.46
47897;BME280;39629;51.400;5.494;2023-04-20T04:23:57;101779.22;;;5.85;78.87
47897;BME280;39629;51.400;5.494;2023-04-20T04:29:10;101773.16;;;5.86;82.46
47897;BME280;39629;51.400;5.494;2023-04-20T04:34:12;101761.88;;;5.87;83.57
47897;BME280;39629;51.400;5.494;2023-04-20T04:39:19;101755.22;;;5.97;83.74
47897;BME280;39629;51.400;5.494;2023-04-20T04:44:40;101757.13;;;6.03;84.49
47897;BME280;39629;51.400;5.494;2023-04-20T04:49:47;101756.50;;;6.11;87.02
47897;BME280;39629;51.400;5.494;2023-04-20T04:54:48;101753.88;;;6.11;88.42
47897;BME280;39629;51.400;5.494;2023-04-20T04:59:51;101760.19;;;6.18;90.63
47897;BME280;39629;51.400;5.494;2023-04-20T05:04:53;101749.75;;;6.18;100.00
47897;BME280;39629;51.400;5.494;2023-04-20T05:09:55;101758.69;;;5.97;100.00
47897;BME280;39629;51.400;5.494;2023-04-20T05:14:58;101750.59;;;5.90;100.00
47897;BME280;39629;51.400;5.494;2023-04-20T05:19:59;101749.69;;;5.88;100.00
47897;BME280;39629;51.400;5.494;2023-04-20T05:25:01;101747.88;;;5.85;100.00
47897;BME280;39629;51.400;5.494;2023-04-20T05:30:05;101762.63;;;5.83;100.00
47897;BME280;39629;51.400;5.494;2023-04-20T05:35:07;101756.56;;;5.86;100.00
47897;BME280;39629;51.400;5.494;2023-04-20T05:40:09;101750.53;;;5.87;100.00
47897;BME280;39629;51.400;5.494;2023-04-20T05:45:12;101748.19;;;5.96;100.00
47897;BME280;39629;51.400;5.494;2023-04-20T05:50:14;101747.50;;;6.02;100.00
47897;BME280;39629;51.400;5.494;2023-04-20T05:55:15;101739.19;;;6.15;100.00
47897;BME280;39629;51.400;5.494;2023-04-20T06:00:19;101742.94;;;6.23;100.00
47897;BME280;39629;51.400;5.494;2023-04-20T06:05:21;101737.91;;;6.31;100.00
47897;BME280;39629;51.400;5.494;2023-04-20T06:10:22;101742.47;;;6.38;100.00
47897;BME280;39629;51.400;5.494;2023-04-20T06:15:25;101729.69;;;6.47;100.00
47897;BME280;39629;51.400;5.494;2023-04-20T06:20:27;101720.31;;;6.54;100.00
47897;BME280;39629;51.400;5.494;2023-04-20T06:25:28;101728.44;;;6.65;100.00
47897;BME280;39629;51.400;5.494;2023-04-20T06:30:32;101711.94;;;6.68;100.00
47897;BME280;39629;51.400;5.494;2023-04-20T06:35:34;101711.13;;;6.70;100.00
47897;BME280;39629;51.400;5.494;2023-04-20T06:40:35;101707.78;;;6.76;100.00
47897;BME280;39629;51.400;5.494;2023-04-20T06:45:38;101696.59;;;6.81;100.00
47897;BME280;39629;51.400;5.494;2023-04-20T06:50:40;101695.84;;;6.86;100.00
47897;BME280;39629;51.400;5.494;2023-04-20T06:55:42;101693.31;;;6.89;100.00
47897;BME280;39629;51.400;5.494;2023-04-20T07:00:45;101704.69;;;6.91;100.00
47897;BME280;39629;51.400;5.494;2023-04-20T07:05:46;101702.28;;;6.98;100.00
47897;BME280;39629;51.400;5.494;2023-04-20T07:10:48;101695.34;;;7.01;100.00
47897;BME280;39629;51.400;5.494;2023-04-20T07:15:51;101695.31;;;6.99;100.00
47897;BME280;39629;51.400;5.494;2023-04-20T07:20:52;101698.81;;;6.99;100.00
47897;BME280;39629;51.400;5.494;2023-04-20T07:25:54;101700.72;;;7.05;100.00
47897;BME280;39629;51.400;5.494;2023-04-20T07:30:57;101697.38;;;7.11;100.00
47897;BME280;39629;51.400;5.494;2023-04-20T07:35:59;101697.59;;;7.20;100.00
47897;BME280;39629;51.400;5.494;2023-04-20T07:41:01;101696.84;;;7.26;100.00
47897;BME280;39629;51.400;5.494;2023-04-20T07:46:04;101686.78;;;7.41;100.00
47897;BME280;39629;51.400;5.494;2023-04-20T07:51:06;101701.84;;;7.52;100.00
47897;BME280;39629;51.400;5.494;2023-04-20T07:56:08;101696.88;;;7.64;100.00
47897;BME280;39629;51.400;5.494;2023-04-20T08:01:11;101693.56;;;7.71;100.00
47897;BME280;39629;51.400;5.494;2023-04-20T08:06:12;101693.31;;;7.60;100.00
47897;BME280;39629;51.400;5.494;2023-04-20T08:11:14;101675.88;;;8.02;100.00
47897;BME280;39629;51.400;5.494;2023-04-20T08:16:17;101667.97;;;8.43;100.00
47897;BME280;39629;51.400;5.494;2023-04-20T08:21:18;101675.66;;;8.35;100.00
47897;BME280;39629;51.400;5.494;2023-04-20T08:26:22;101669.00;;;8.07;100.00
47897;BME280;39629;51.400;5.494;2023-04-20T08:31:26;101671.88;;;8.20;100.00
47897;BME280;39629;51.400;5.494;2023-04-20T08:36:27;101668.50;;;8.27;100.00
47897;BME280;39629;51.400;5.494;2023-04-20T08:41:29;101663.25;;;8.73;100.00
47897;BME280;39629;51.400;5.494;2023-04-20T08:46:32;101655.06;;;9.03;100.00
47897;BME280;39629;51.400;5.494;2023-04-20T08:51:34;101658.28;;;8.90;99.30
47897;BME280;39629;51.400;5.494;2023-04-20T08:56:36;101650.84;;;9.13;98.97
47897;BME280;39629;51.400;5.494;2023-04-20T09:01:40;101646.13;;;8.93;99.00
47897;BME280;39629;51.400;5.494;2023-04-20T09:06:43;101647.69;;;8.82;97.76
47897;BME280;39629;51.400;5.494;2023-04-20T09:11:44;101646.72;;;8.77;98.17
47897;BME280;39629;51.400;5.494;2023-04-20T09:16:52;101640.41;;;8.67;100.00
47897;BME280;39629;51.400;5.494;2023-04-20T09:21:57;101647.97;;;8.97;99.08
47897;BME280;39629;51.400;5.494;2023-04-20T09:27:01;101651.41;;;8.95;97.52
47897;BME280;39629;51.400;5.494;2023-04-20T09:32:04;101636.81;;;8.62;98.36
47897;BME280;39629;51.400;5.494;2023-04-20T09:37:08;101638.03;;;8.81;97.29
47897;BME280;39629;51.400;5.494;2023-04-20T09:42:11;101640.16;;;9.02;93.38
47897;BME280;39629;51.400;5.494;2023-04-20T09:47:15;101630.63;;;9.07;91.50
47897;BME280;39629;51.400;5.494;2023-04-20T09:52:17;101615.91;;;9.81;87.61
47897;BME280;39629;51.400;5.494;2023-04-20T09:57:19;101604.56;;;9.85;88.71
47897;BME280;39629;51.400;5.494;2023-04-20T10:02:23;101589.81;;;9.97;85.44
47897;BME280;39629;51.400;5.494;2023-04-20T10:07:25;101592.06;;;9.67;83.04
47897;BME280;39629;51.400;5.494;2023-04-20T10:12:27;101590.84;;;9.41;86.07
47897;BME280;39629;51.400;5.494;2023-04-20T10:17:31;101582.50;;;9.71;85.68
47897;BME280;39629;51.400;5.494;2023-04-20T10:22:33;101574.31;;;9.49;85.45
47897;BME280;39629;51.400;5.494;2023-04-20T10:27:34;101586.97;;;9.14;87.99
47897;BME280;39629;51.400;5.494;2023-04-20T10:32:37;101580.47;;;9.48;84.82
47897;BME280;39629;51.400;5.494;2023-04-20T10:37:47;101565.41;;;10.10;82.42
47897;BME280;39629;51.400;5.494;2023-04-20T10:42:49;101568.72;;;9.94;79.12
47897;BME280;39629;51.400;5.494;2023-04-20T10:47:52;101564.06;;;9.66;80.38
47897;BME280;39629;51.400;5.494;2023-04-20T10:52:54;101565.03;;;9.76;81.54
47897;BME280;39629;51.400;5.494;2023-04-20T10:57:56;101570.94;;;9.57;83.51
47897;BME280;39629;51.400;5.494;2023-04-20T11:02:59;101562.81;;;9.41;85.51
47897;BME280;39629;51.400;5.494;2023-04-20T11:08:00;101567.97;;;9.32;88.37
47897;BME280;39629;51.400;5.494;2023-04-20T11:13:02;101559.25;;;9.34;88.61
47897;BME280;39629;51.400;5.494;2023-04-20T11:18:09;101563.16;;;9.03;88.84
47897;BME280;39629;51.400;5.494;2023-04-20T11:23:11;101550.47;;;9.34;88.42
47897;BME280;39629;51.400;5.494;2023-04-20T11:28:13;101545.19;;;8.76;94.10
47897;BME280;39629;51.400;5.494;2023-04-20T11:33:23;101541.28;;;9.01;94.32
47897;BME280;39629;51.400;5.494;2023-04-20T11:38:28;101541.94;;;8.91;95.03
47897;BME280;39629;51.400;5.494;2023-04-20T11:43:30;101544.41;;;8.81;95.37
47897;BME280;39629;51.400;5.494;2023-04-20T11:48:33;101544.19;;;8.66;100.00
47897;BME280;39629;51.400;5.494;2023-04-20T11:53:35;101520.28;;;9.01;100.00
47897;BME280;39629;51.400;5.494;2023-04-20T11:58:37;101522.84;;;8.99;100.00
47897;BME280;39629;51.400;5.494;2023-04-20T12:03:39;101542.22;;;8.52;100.00
47897;BME280;39629;51.400;5.494;2023-04-20T12:08:41;101562.78;;;7.41;100.00
47897;BME280;39629;51.400;5.494;2023-04-20T12:13:43;101551.69;;;7.51;100.00
47897;BME280;39629;51.400;5.494;2023-04-20T12:18:46;101537.13;;;8.62;100.00
47897;BME280;39629;51.400;5.494;2023-04-20T12:23:48;101527.34;;;9.07;100.00
47897;BME280;39629;51.400;5.494;2023-04-20T12:28:50;101504.81;;;9.23;100.00
47897;BME280;39629;51.400;5.494;2023-04-20T12:33:53;101506.59;;;10.00;100.00
47897;BME280;39629;51.400;5.494;2023-04-20T12:38:54;101489.66;;;10.73;100.00
47897;BME280;39629;51.400;5.494;2023-04-20T12:43:56;101501.88;;;9.70;100.00
47897;BME280;39629;51.400;5.494;2023-04-20T12:48:59;101492.72;;;10.18;100.00
47897;BME280;39629;51.400;5.494;2023-04-20T12:54:01;101485.41;;;9.85;100.00
47897;BME280;39629;51.400;5.494;2023-04-20T12:59:03;101484.25;;;9.60;100.00
47897;BME280;39629;51.400;5.494;2023-04-20T13:04:06;101520.75;;;8.78;100.00
47897;BME280;39629;51.400;5.494;2023-04-20T13:09:07;101508.34;;;8.14;100.00
47897;BME280;39629;51.400;5.494;2023-04-20T13:14:09;101499.00;;;8.85;100.00
47897;BME280;39629;51.400;5.494;2023-04-20T13:19:12;101493.41;;;9.20;100.00
47897;BME280;39629;51.400;5.494;2023-04-20T13:24:13;101476.44;;;9.67;100.00
47897;BME280;39629;51.400;5.494;2023-04-20T13:29:15;101476.81;;;10.04;100.00
47897;BME280;39629;51.400;5.494;2023-04-20T13:34:18;101475.50;;;9.61;100.00
47897;BME280;39629;51.400;5.494;2023-04-20T13:39:20;101480.94;;;9.06;100.00
47897;BME280;39629;51.400;5.494;2023-04-20T13:44:21;101496.97;;;8.67;100.00
47897;BME280;39629;51.400;5.494;2023-04-20T13:49:24;101496.81;;;8.57;100.00
47897;BME280;39629;51.400;5.494;2023-04-20T13:54:26;101475.03;;;8.61;100.00
47897;BME280;39629;51.400;5.494;2023-04-20T13:59:28;101464.81;;;8.81;100.00
47897;BME280;39629;51.400;5.494;2023-04-20T14:04:31;101467.06;;;9.14;100.00
47897;BME280;39629;51.400;5.494;2023-04-20T14:09:32;101457.72;;;9.40;100.00
47897;BME280;39629;51.400;5.494;2023-04-20T14:14:34;101455.78;;;10.04;100.00
47897;BME280;39629;51.400;5.494;2023-04-20T14:19:37;101438.06;;;11.03;100.00
47897;BME280;39629;51.400;5.494;2023-04-20T14:24:38;101431.09;;;11.13;100.00
47897;BME280;39629;51.400;5.494;2023-04-20T14:29:40;101433.56;;;10.84;100.00
47897;BME280;39629;51.400;5.494;2023-04-20T14:34:43;101430.81;;;10.61;100.00
47897;BME280;39629;51.400;5.494;2023-04-20T14:39:44;101443.03;;;10.52;100.00
47897;BME280;39629;51.400;5.494;2023-04-20T14:44:46;101442.13;;;10.49;100.00
47897;BME280;39629;51.400;5.494;2023-04-20T14:49:49;101434.84;;;10.14;100.00
47897;BME280;39629;51.400;5.494;2023-04-20T14:54:50;101441.78;;;10.05;100.00
47897;BME280;39629;51.400;5.494;2023-04-20T14:59:52;101439.91;;;9.95;100.00
47897;BME280;39629;51.400;5.494;2023-04-20T15:04:56;101434.84;;;10.15;100.00
47897;BME280;39629;51.400;5.494;2023-04-20T15:09:58;101424.69;;;10.65;100.00
47897;BME280;39629;51.400;5.494;2023-04-20T15:14:59;101419.38;;;10.60;100.00
47897;BME280;39629;51.400;5.494;2023-04-20T15:20:02;101412.34;;;10.59;100.00
47897;BME280;39629;51.400;5.494;2023-04-20T15:25:05;101408.06;;;10.78;100.00
47897;BME280;39629;51.400;5.494;2023-04-20T15:30:09;101404.53;;;10.70;100.00
47897;BME280;39629;51.400;5.494;2023-04-20T15:35:12;101398.41;;;10.77;100.00
47897;BME280;39629;51.400;5.494;2023-04-20T15:40:13;101408.38;;;11.37;100.00
47897;BME280;39629;51.400;5.494;2023-04-20T15:45:16;101398.75;;;11.51;100.00
47897;BME280;39629;51.400;5.494;2023-04-20T15:50:19;101400.41;;;11.23;97.75
47897;BME280;39629;51.400;5.494;2023-04-20T15:55:21;101395.00;;;10.89;97.60
47897;BME280;39629;51.400;5.494;2023-04-20T16:00:23;101395.88;;;10.86;98.75
47897;BME280;39629;51.400;5.494;2023-04-20T16:05:26;101384.66;;;11.41;97.31
47897;BME280;39629;51.400;5.494;2023-04-20T16:10:28;101387.34;;;11.74;98.56
47897;BME280;39629;51.400;5.494;2023-04-20T16:15:29;101396.03;;;11.23;99.06
47897;BME280;39629;51.400;5.494;2023-04-20T16:20:32;101395.06;;;10.97;100.00
47897;BME280;39629;51.400;5.494;2023-04-20T16:25:34;101402.81;;;10.77;92.89
47897;BME280;39629;51.400;5.494;2023-04-20T16:30:37;101401.03;;;10.71;95.06
47897;BME280;39629;51.400;5.494;2023-04-20T16:35:40;101394.25;;;11.22;95.62
47897;BME280;39629;51.400;5.494;2023-04-20T16:40:42;101391.75;;;11.69;90.15
47897;BME280;39629;51.400;5.494;2023-04-20T16:45:44;101404.94;;;11.87;90.00
47897;BME280;39629;51.400;5.494;2023-04-20T16:50:47;101403.03;;;11.21;89.87
47897;BME280;39629;51.400;5.494;2023-04-20T16:55:48;101400.34;;;11.04;91.78
47897;BME280;39629;51.400;5.494;2023-04-20T17:00:50;101405.53;;;10.90;94.27
47897;BME280;39629;51.400;5.494;2023-04-20T17:05:53;101392.25;;;10.72;95.52
47897;BME280;39629;51.400;5.494;2023-04-20T17:10:55;101401.81;;;10.54;96.06
47897;BME280;39629;51.400;5.494;2023-04-20T17:15:56;101397.34;;;10.43;95.26
47897;BME280;39629;51.400;5.494;2023-04-20T17:20:59;101396.34;;;10.28;95.55
47897;BME280;39629;51.400;5.494;2023-04-20T17:26:01;101396.38;;;10.31;96.46
47897;BME280;39629;51.400;5.494;2023-04-20T17:31:03;101396.44;;;10.37;98.04
47897;BME280;39629;51.400;5.494;2023-04-20T17:36:07;101407.81;;;10.35;97.80
47897;BME280;39629;51.400;5.494;2023-04-20T17:41:08;101414.81;;;10.33;96.78
47897;BME280;39629;51.400;5.494;2023-04-20T17:46:10;101416.56;;;10.31;96.38
47897;BME280;39629;51.400;5.494;2023-04-20T17:51:15;101420.03;;;10.30;95.80
47897;BME280;39629;51.400;5.494;2023-04-20T17:56:16;101425.25;;;10.20;96.23
47897;BME280;39629;51.400;5.494;2023-04-20T18:01:18;101433.16;;;10.22;94.94
47897;BME280;39629;51.400;5.494;2023-04-20T18:06:22;101439.94;;;9.97;98.93
47897;BME280;39629;51.400;5.494;2023-04-20T18:11:24;101437.31;;;9.97;98.69
47897;BME280;39629;51.400;5.494;2023-04-20T18:16:25;101445.84;;;9.74;100.00
47897;BME280;39629;51.400;5.494;2023-04-20T18:21:28;101441.38;;;9.65;100.00
47897;BME280;39629;51.400;5.494;2023-04-20T18:26:30;101436.94;;;9.60;100.00
47897;BME280;39629;51.400;5.494;2023-04-20T18:31:32;101448.19;;;9.48;100.00
47897;BME280;39629;51.400;5.494;2023-04-20T18:36:35;101447.31;;;9.46;100.00
47897;BME280;39629;51.400;5.494;2023-04-20T18:41:36;101448.84;;;9.30;100.00
47897;BME280;39629;51.400;5.494;2023-04-20T18:46:38;101448.66;;;9.14;100.00
47897;BME280;39629;51.400;5.494;2023-04-20T18:51:42;101460.66;;;8.95;100.00
47897;BME280;39629;51.400;5.494;2023-04-20T18:56:44;101457.16;;;8.95;100.00
47897;BME280;39629;51.400;5.494;2023-04-20T19:01:47;101462.31;;;8.89;100.00
47897;BME280;39629;51.400;5.494;2023-04-20T19:06:50;101461.13;;;8.68;100.00
47897;BME280;39629;51.400;5.494;2023-04-20T19:11:51;101464.34;;;8.50;100.00
47897;BME280;39629;51.400;5.494;2023-04-20T19:16:53;101458.06;;;8.39;100.00
47897;BME280;39629;51.400;5.494;2023-04-20T19:21:56;101457.13;;;8.35;100.00
47897;BME280;39629;51.400;5.494;2023-04-20T19:26:59;101451.81;;;8.30;100.00
47897;BME280;39629;51.400;5.494;2023-04-20T19:32:01;101448.00;;;8.11;100.00
47897;BME280;39629;51.400;5.494;2023-04-20T19:37:04;101460.88;;;7.99;100.00
47897;BME280;39629;51.400;5.494;2023-04-20T19:42:06;101453.75;;;7.90;100.00
47897;BME280;39629;51.400;5.494;2023-04-20T19:47:07;101460.72;;;7.90;100.00
47897;BME280;39629;51.400;5.494;2023-04-20T19:52:10;101455.84;;;8.11;100.00
47897;BME280;39629;51.400;5.494;2023-04-20T19:57:12;101453.31;;;8.16;100.00
47897;BME280;39629;51.400;5.494;2023-04-20T20:02:13;101462.88;;;8.12;100.00
47897;BME280;39629;51.400;5.494;2023-04-20T20:07:16;101462.69;;;8.01;100.00
47897;BME280;39629;51.400;5.494;2023-04-20T20:12:18;101449.50;;;7.97;100.00
47897;BME280;39629;51.400;5.494;2023-04-20T20:17:19;101449.41;;;7.92;100.00
47897;BME280;39629;51.400;5.494;2023-04-20T20:22:22;101456.34;;;7.89;100.00
47897;BME280;39629;51.400;5.494;2023-04-20T20:27:24;101458.94;;;7.87;100.00
47897;BME280;39629;51.400;5.494;2023-04-20T20:32:26;101444.06;;;7.86;100.00
47897;BME280;39629;51.400;5.494;2023-04-20T20:37:29;101450.19;;;7.88;100.00
47897;BME280;39629;51.400;5.494;2023-04-20T20:42:33;101451.81;;;7.81;100.00
47897;BME280;39629;51.400;5.494;2023-04-20T20:47:38;101458.00;;;7.83;100.00
47897;BME280;39629;51.400;5.494;2023-04-20T20:52:41;101450.22;;;7.90;100.00
47897;BME280;39629;51.400;5.494;2023-04-20T20:57:43;101454.53;;;7.84;100.00
47897;BME280;39629;51.400;5.494;2023-04-20T21:02:45;101447.50;;;7.83;100.00
47897;BME280;39629;51.400;5.494;2023-04-20T21:07:49;101448.25;;;7.76;100.00
47897;BME280;39629;51.400;5.494;2023-04-20T21:12:50;101432.50;;;7.73;100.00
47897;BME280;39629;51.400;5.494;2023-04-20T21:17:52;101438.47;;;7.67;100.00
47897;BME280;39629;51.400;5.494;2023-04-20T21:22:55;101446.44;;;7.72;100.00
47897;BME280;39629;51.400;5.494;2023-04-20T21:27:56;101449.91;;;7.71;100.00
47897;BME280;39629;51.400;5.494;2023-04-20T21:32:58;101457.75;;;7.71;100.00
47897;BME280;39629;51.400;5.494;2023-04-20T21:38:01;101461.25;;;7.72;100.00
47897;BME280;39629;51.400;5.494;2023-04-20T21:43:04;101461.16;;;7.67;100.00
47897;BME280;39629;51.400;5.494;2023-04-20T21:48:05;101462.03;;;7.66;100.00
47897;BME280;39629;51.400;5.494;2023-04-20T21:53:08;101459.41;;;7.66;100.00
47897;BME280;39629;51.400;5.494;2023-04-20T21:58:10;101464.53;;;7.60;100.00
47897;BME280;39629;51.400;5.494;2023-04-20T22:03:12;101460.69;;;7.42;100.00
47897;BME280;39629;51.400;5.494;2023-04-20T22:08:14;101476.94;;;7.26;100.00
47897;BME280;39629;51.400;5.494;2023-04-20T22:13:21;101481.97;;;7.15;100.00
47897;BME280;39629;51.400;5.494;2023-04-20T22:18:22;101472.25;;;7.09;100.00
47897;BME280;39629;51.400;5.494;2023-04-20T22:23:25;101462.34;;;6.96;100.00
47897;BME280;39629;51.400;5.494;2023-04-20T22:28:27;101458.75;;;6.91;100.00
47897;BME280;39629;51.400;5.494;2023-04-20T22:33:28;101453.38;;;6.85;100.00
47897;BME280;39629;51.400;5.494;2023-04-20T22:38:33;101451.56;;;6.80;100.00
47897;BME280;39629;51.400;5.494;2023-04-20T22:43:35;101440.97;;;6.76;100.00
47897;BME280;39629;51.400;5.494;2023-04-20T22:48:36;101433.88;;;6.70;100.00
47897;BME280;39629;51.400;5.494;2023-04-20T22:53:41;101426.00;;;6.70;100.00
47897;BME280;39629;51.400;5.494;2023-04-20T22:58:43;101418.94;;;6.66;100.00
47897;BME280;39629;51.400;5.494;2023-04-20T23:03:44;101407.59;;;6.64;100.00
47897;BME280;39629;51.400;5.494;2023-04-20T23:08:47;101383.13;;;6.62;100.00
47897;BME280;39629;51.400;5.494;2023-04-20T23:13:49;101383.88;;;6.58;100.00
47897;BME280;39629;51.400;5.494;2023-04-20T23:18:51;101375.97;;;6.53;100.00
47897;BME280;39629;51.400;5.494;2023-04-20T23:23:54;101350.69;;;6.54;100.00
47897;BME280;39629;51.400;5.494;2023-04-20T23:28:57;101355.84;;;6.51;100.00
47897;BME280;39629;51.400;5.494;2023-04-20T23:33:58;101358.41;;;6.47;100.00
47897;BME280;39629;51.400;5.494;2023-04-20T23:39:01;101356.59;;;6.46;100.00
47897;BME280;39629;51.400;5.494;2023-04-20T23:44:04;101337.38;;;6.44;100.00
47897;BME280;39629;51.400;5.494;2023-04-20T23:49:06;101348.72;;;6.45;100.00
47897;BME280;39629;51.400;5.494;2023-04-20T23:54:09;101348.63;;;6.40;100.00
47897;BME280;39629;51.400;5.494;2023-04-20T23:59:11;101357.41;;;6.44;100.00
